createdAt,value
2019-04-03T00:00:04.408Z,74.77
2019-04-03T00:02:32.710Z,75.36
2019-04-03T00:05:02.976Z,74.36
2019-04-03T00:07:35.160Z,74.45
2019-04-03T00:10:04.744Z,74.34
2019-04-03T00:12:33.893Z,75.86
2019-04-03T00:15:02.230Z,76.45
2019-04-03T00:17:30.533Z,75.29
2019-04-03T00:19:59.006Z,75.91
2019-04-03T00:22:27.381Z,76.50
2019-04-03T00:24:55.780Z,77.35
2019-04-03T00:27:24.244Z,76.94
2019-04-03T00:29:52.671Z,78.15
2019-04-03T00:32:21.814Z,76.93
2019-04-03T00:34:53.098Z,77.99
2019-04-03T00:37:21.533Z,78.12
2019-04-03T00:39:53.858Z,78.80
2019-04-03T00:42:21.276Z,78.15
2019-04-03T00:44:49.584Z,78.39
2019-04-03T00:47:18.102Z,80.01
2019-04-03T00:49:48.147Z,80.30
2019-04-03T00:52:16.488Z,80.68
2019-04-03T00:54:45.144Z,80.81
2019-04-03T00:57:13.479Z,81.30
2019-04-03T00:59:41.952Z,81.34
2019-04-03T01:02:10.211Z,80.83
2019-04-03T01:04:38.674Z,81.64
2019-04-03T01:07:07.354Z,82.46
2019-04-03T01:09:35.680Z,81.56
2019-04-03T01:12:04.165Z,81.83
2019-04-03T01:14:32.461Z,82.59
2019-04-03T01:17:03.499Z,82.88
2019-04-03T01:19:30.886Z,82.89
2019-04-03T01:21:59.614Z,84.37
2019-04-03T01:24:27.873Z,84.88
2019-04-03T01:26:56.193Z,84.38
2019-04-03T01:29:24.505Z,84.80
2019-04-03T01:31:52.825Z,85.74
2019-04-03T01:34:21.139Z,86.56
2019-04-03T01:36:49.464Z,86.66
2019-04-03T01:39:19.155Z,87.98
2019-04-03T01:41:47.829Z,87.61
2019-04-03T01:44:16.124Z,88.01
2019-04-03T01:46:44.424Z,87.98
2019-04-03T01:49:12.961Z,89.14
2019-04-03T01:51:41.435Z,89.90
2019-04-03T01:54:09.755Z,90.90
2019-04-03T01:56:38.061Z,91.34
2019-04-03T01:59:07.332Z,91.62
2019-04-03T02:01:36.579Z,92.84
2019-04-03T02:04:05.922Z,93.98
2019-04-03T02:06:34.514Z,94.41
2019-04-03T02:09:04.648Z,95.76
2019-04-03T02:11:32.968Z,97.76
2019-04-03T02:14:01.298Z,98.73
2019-04-03T02:16:29.600Z,100.00
2019-04-03T02:18:57.914Z,100.00
2019-04-03T02:21:27.932Z,100.00
2019-04-03T02:23:56.442Z,100.00
2019-04-03T02:26:24.776Z,100.00
2019-04-03T02:28:53.083Z,100.00
2019-04-03T02:31:21.428Z,100.00
2019-04-03T02:33:49.744Z,100.00
2019-04-03T02:36:18.238Z,100.00
2019-04-03T02:38:46.862Z,100.00
2019-04-03T02:41:15.660Z,100.00
2019-04-03T02:43:46.281Z,100.00
2019-04-03T02:46:14.494Z,100.00
2019-04-03T02:48:42.916Z,100.00
2019-04-03T02:51:11.306Z,100.00
2019-04-03T02:53:39.894Z,100.00
2019-04-03T02:56:11.567Z,100.00
2019-04-03T02:58:38.293Z,100.00
2019-04-03T03:01:07.351Z,100.00
2019-04-03T03:03:36.433Z,100.00
2019-04-03T03:06:05.195Z,100.00
2019-04-03T03:08:33.503Z,100.00
2019-04-03T03:11:03.537Z,100.00
2019-04-03T03:13:34.559Z,100.00
2019-04-03T03:16:03.673Z,100.00
2019-04-03T03:18:32.081Z,100.00
2019-04-03T03:21:01.959Z,100.00
2019-04-03T03:23:30.570Z,100.00
2019-04-03T03:25:59.069Z,100.00
2019-04-03T03:28:27.659Z,100.00
2019-04-03T03:31:02.578Z,100.00
2019-04-03T03:33:35.554Z,100.00
2019-04-03T03:35:58.006Z,100.00
2019-04-03T03:38:28.158Z,100.00
2019-04-03T03:40:57.033Z,100.00
2019-04-03T03:43:25.916Z,100.00
2019-04-03T03:45:54.631Z,100.00
2019-04-03T03:48:23.367Z,100.00
2019-04-03T03:50:55.669Z,94.89
2019-04-03T03:53:22.306Z,90.50
2019-04-03T03:55:51.023Z,97.85
2019-04-03T03:58:20.181Z,100.00
2019-04-03T04:00:52.538Z,100.00
2019-04-03T04:03:19.233Z,100.00
2019-04-03T04:05:47.525Z,100.00
2019-04-03T04:08:16.223Z,100.00
2019-04-03T04:10:44.638Z,100.00
2019-04-03T04:13:15.511Z,100.00
2019-04-03T04:15:44.237Z,100.00
2019-04-03T04:18:14.774Z,100.00
2019-04-03T04:20:43.024Z,100.00
2019-04-03T04:23:11.783Z,100.00
2019-04-03T04:25:43.462Z,100.00
2019-04-03T04:28:10.459Z,100.00
2019-04-03T04:30:38.828Z,100.00
2019-04-03T04:33:07.136Z,100.00
2019-04-03T04:35:35.865Z,100.00
2019-04-03T04:38:04.236Z,100.00
2019-04-03T04:40:32.622Z,100.00
2019-04-03T04:43:03.619Z,100.00
2019-04-03T04:45:33.284Z,100.00
2019-04-03T04:48:01.312Z,100.00
2019-04-03T04:50:29.632Z,100.00
2019-04-03T04:52:58.757Z,100.00
2019-04-03T04:55:30.422Z,100.00
2019-04-03T04:57:57.887Z,100.00
2019-04-03T05:00:29.220Z,100.00
2019-04-03T05:02:56.251Z,100.00
2019-04-03T05:05:26.458Z,100.00
2019-04-03T05:07:55.027Z,100.00
2019-04-03T05:10:23.272Z,100.00
2019-04-03T05:12:51.620Z,100.00
2019-04-03T05:15:23.277Z,100.00
2019-04-03T05:17:50.565Z,100.00
2019-04-03T05:20:20.211Z,100.00
2019-04-03T05:22:48.826Z,100.00
2019-04-03T05:25:17.943Z,100.00
2019-04-03T05:27:46.247Z,100.00
2019-04-03T05:30:23.813Z,100.00
2019-04-03T05:32:52.133Z,100.00
2019-04-03T05:35:20.462Z,100.00
2019-04-03T05:37:50.934Z,100.00
2019-04-03T05:40:19.355Z,100.00
2019-04-03T05:42:48.560Z,100.00
2019-04-03T05:45:17.020Z,100.00
2019-04-03T05:47:45.369Z,100.00
2019-04-03T05:50:13.851Z,100.00
2019-04-03T05:52:42.171Z,100.00
2019-04-03T05:55:10.907Z,100.00
2019-04-03T05:57:39.237Z,100.00
2019-04-03T06:00:07.815Z,100.00
2019-04-03T06:02:36.307Z,100.00
2019-04-03T06:05:07.090Z,100.00
2019-04-03T06:07:36.318Z,100.00
2019-04-03T06:10:06.505Z,100.00
2019-04-03T06:12:36.694Z,100.00
2019-04-03T06:15:09.310Z,100.00
2019-04-03T06:17:37.896Z,99.88
2019-04-03T06:20:10.521Z,98.88
2019-04-03T06:22:37.228Z,99.37
2019-04-03T06:25:06.803Z,95.91
2019-04-03T06:27:35.365Z,96.17
2019-04-03T06:30:07.644Z,94.40
2019-04-03T06:32:36.106Z,93.15
2019-04-03T06:35:05.254Z,92.14
2019-04-03T06:37:33.793Z,91.97
2019-04-03T06:40:03.301Z,90.29
2019-04-03T06:42:32.167Z,89.67
2019-04-03T06:45:00.477Z,89.60
2019-04-03T06:47:31.845Z,89.34
2019-04-03T06:49:59.188Z,88.31
2019-04-03T06:52:27.549Z,86.90
2019-04-03T06:54:55.830Z,85.95
2019-04-03T06:57:24.416Z,85.28
2019-04-03T06:59:52.739Z,82.52
2019-04-03T07:02:21.113Z,82.90
2019-04-03T07:04:49.411Z,81.22
2019-04-03T07:07:31.517Z,79.69
2019-04-03T07:09:50.325Z,76.93
2019-04-03T07:12:17.877Z,74.04
2019-04-03T07:14:46.273Z,74.09
2019-04-03T07:17:14.590Z,74.24
2019-04-03T07:19:43.254Z,69.61
2019-04-03T07:22:12.017Z,71.19
2019-04-03T07:24:40.348Z,70.69
2019-04-03T07:27:08.726Z,71.95
2019-04-03T07:29:37.159Z,73.84
2019-04-03T07:32:05.857Z,75.69
2019-04-03T07:34:34.637Z,73.07
2019-04-03T07:37:03.277Z,73.79
2019-04-03T07:39:31.918Z,69.89
2019-04-03T07:42:00.476Z,68.55
2019-04-03T07:44:29.806Z,66.35
2019-04-03T07:46:59.522Z,66.22
2019-04-03T07:49:27.911Z,65.72
2019-04-03T07:51:56.607Z,63.83
2019-04-03T07:54:26.803Z,65.55
2019-04-03T07:56:57.373Z,66.64
2019-04-03T07:59:24.960Z,64.19
2019-04-03T08:01:53.270Z,63.96
2019-04-03T08:04:21.980Z,62.70
2019-04-03T08:06:51.686Z,62.32
2019-04-03T08:09:19.989Z,60.46
2019-04-03T08:11:48.315Z,59.45
2019-04-03T08:14:19.228Z,61.05
2019-04-03T08:16:48.200Z,60.51
2019-04-03T08:19:16.773Z,58.46
2019-04-03T08:21:45.100Z,58.14
2019-04-03T08:24:13.404Z,58.14
2019-04-03T08:26:41.781Z,56.05
2019-04-03T08:29:10.411Z,58.02
2019-04-03T08:31:42.506Z,56.29
2019-04-03T08:34:17.061Z,56.37
2019-04-03T08:36:39.900Z,57.98
2019-04-03T08:39:08.790Z,56.89
2019-04-03T08:41:37.891Z,55.11
2019-04-03T08:44:08.459Z,54.53
2019-04-03T08:46:36.589Z,55.86
2019-04-03T08:49:04.954Z,55.89
2019-04-03T08:51:33.870Z,55.77
2019-04-03T08:54:04.269Z,54.81
2019-04-03T08:56:32.859Z,52.39
2019-04-03T08:59:01.491Z,52.27
2019-04-03T09:01:30.255Z,51.81
2019-04-03T09:03:59.162Z,50.41
2019-04-03T09:06:27.739Z,50.05
2019-04-03T09:08:57.849Z,50.17
2019-04-03T09:11:26.105Z,49.95
2019-04-03T09:13:55.321Z,48.71
2019-04-03T09:16:24.571Z,49.60
2019-04-03T09:18:52.879Z,49.15
2019-04-03T09:21:21.260Z,47.13
2019-04-03T09:23:49.575Z,48.98
2019-04-03T09:26:17.964Z,49.31
2019-04-03T09:28:46.271Z,46.86
2019-04-03T09:31:14.649Z,47.76
2019-04-03T09:33:42.972Z,47.85
2019-04-03T09:36:12.393Z,47.31
2019-04-03T09:38:41.789Z,45.87
2019-04-03T09:41:10.325Z,47.25
2019-04-03T09:43:39.697Z,46.95
2019-04-03T09:46:08.924Z,46.41
2019-04-03T09:48:37.642Z,46.10
2019-04-03T09:51:09.140Z,46.36
2019-04-03T09:53:36.551Z,47.52
2019-04-03T09:56:08.034Z,47.53
2019-04-03T09:58:35.817Z,48.85
2019-04-03T10:01:05.037Z,48.95
2019-04-03T10:03:33.622Z,48.28
2019-04-03T10:06:02.200Z,47.85
2019-04-03T10:08:30.509Z,46.22
2019-04-03T10:10:59.136Z,47.31
2019-04-03T10:13:27.521Z,46.44
2019-04-03T10:15:55.981Z,45.14
2019-04-03T10:18:24.309Z,47.11
2019-04-03T10:20:52.687Z,45.69
2019-04-03T10:23:21.115Z,43.37
2019-04-03T10:25:49.391Z,43.81
2019-04-03T10:28:19.675Z,43.36
2019-04-03T10:30:48.006Z,43.64
2019-04-03T10:33:16.491Z,42.70
2019-04-03T10:35:47.323Z,41.71
2019-04-03T10:38:16.125Z,42.31
2019-04-03T10:40:44.998Z,43.79
2019-04-03T10:43:13.897Z,41.70
2019-04-03T10:45:42.651Z,41.10
2019-04-03T10:48:11.239Z,41.59
2019-04-03T10:50:39.797Z,41.74
2019-04-03T10:53:08.171Z,42.27
2019-04-03T10:55:36.836Z,40.98
2019-04-03T10:58:07.628Z,41.02
2019-04-03T11:00:35.996Z,40.38
2019-04-03T11:03:04.691Z,39.64
2019-04-03T11:05:33.063Z,40.86
2019-04-03T11:08:01.521Z,40.40
2019-04-03T11:10:30.138Z,41.38
2019-04-03T11:12:58.994Z,41.30
2019-04-03T11:15:27.321Z,40.29
2019-04-03T11:17:55.858Z,40.09
2019-04-03T11:20:24.637Z,40.95
2019-04-03T11:23:04.122Z,41.63
2019-04-03T11:25:24.012Z,39.95
2019-04-03T11:27:52.834Z,41.27
2019-04-03T11:30:24.618Z,39.55
2019-04-03T11:32:52.193Z,38.97
2019-04-03T11:35:21.719Z,41.41
2019-04-03T11:37:50.666Z,39.48
2019-04-03T11:40:20.520Z,37.54
2019-04-03T11:42:48.996Z,37.20
2019-04-03T11:45:18.157Z,36.23
2019-04-03T11:47:47.233Z,37.89
2019-04-03T11:50:17.039Z,34.40
2019-04-03T11:52:45.742Z,34.39
2019-04-03T11:55:14.591Z,33.72
2019-04-03T11:57:43.035Z,33.88
2019-04-03T12:00:20.361Z,34.73
2019-04-03T12:02:48.813Z,35.29
2019-04-03T12:05:20.820Z,32.64
2019-04-03T12:07:48.178Z,35.20
2019-04-03T12:10:16.833Z,33.36
2019-04-03T12:12:45.114Z,33.94
2019-04-03T12:15:16.233Z,35.37
2019-04-03T12:17:44.619Z,36.13
2019-04-03T12:20:15.286Z,31.99
2019-04-03T12:22:43.479Z,32.20
2019-04-03T12:25:11.858Z,30.08
2019-04-03T12:27:40.379Z,31.43
2019-04-03T12:30:09.565Z,30.04
2019-04-03T12:32:42.872Z,30.35
2019-04-03T12:35:09.770Z,30.47
2019-04-03T12:37:38.733Z,30.04
2019-04-03T12:40:07.570Z,28.77
2019-04-03T12:42:35.961Z,28.21
2019-04-03T12:45:07.458Z,29.38
2019-04-03T12:47:36.228Z,28.72
2019-04-03T12:50:07.737Z,28.92
2019-04-03T12:52:36.505Z,31.05
2019-04-03T12:55:06.759Z,28.57
2019-04-03T12:57:38.141Z,30.87
2019-04-03T13:00:12.759Z,30.01
2019-04-03T13:02:41.321Z,30.11
2019-04-03T13:05:10.144Z,30.26
2019-04-03T13:07:38.521Z,31.81
2019-04-03T13:10:08.570Z,30.84
2019-04-03T13:12:37.352Z,30.20
2019-04-03T13:15:09.269Z,29.86
2019-04-03T13:17:38.348Z,30.31
2019-04-03T13:20:08.083Z,30.57
2019-04-03T13:22:36.828Z,29.28
2019-04-03T13:25:09.737Z,30.93
2019-04-03T13:27:38.111Z,28.98
2019-04-03T13:30:11.457Z,28.23
2019-04-03T13:32:39.637Z,30.33
2019-04-03T13:35:08.584Z,29.41
2019-04-03T13:37:37.284Z,27.83
2019-04-03T13:40:07.894Z,29.13
2019-04-03T13:42:36.613Z,29.39
2019-04-03T13:45:08.223Z,29.00
2019-04-03T13:47:39.872Z,29.16
2019-04-03T13:50:08.779Z,30.05
2019-04-03T13:52:41.012Z,28.15
2019-04-03T13:55:08.766Z,30.98
2019-04-03T13:57:37.192Z,28.13
2019-04-03T14:00:18.369Z,26.75
2019-04-03T14:02:37.474Z,30.48
2019-04-03T14:05:08.781Z,28.88
2019-04-03T14:07:40.475Z,29.05
2019-04-03T14:10:09.206Z,29.41
2019-04-03T14:12:41.641Z,28.29
2019-04-03T14:15:08.520Z,28.83
2019-04-03T14:17:37.484Z,27.13
2019-04-03T14:20:07.497Z,26.71
2019-04-03T14:22:36.068Z,26.33
2019-04-03T14:25:17.919Z,24.54
2019-04-03T14:27:36.498Z,26.31
2019-04-03T14:30:11.595Z,26.31
2019-04-03T14:32:39.460Z,25.31
2019-04-03T14:35:34.143Z,25.07
2019-04-03T14:37:38.829Z,24.97
2019-04-03T14:40:11.134Z,24.77
2019-04-03T14:42:38.551Z,25.81
2019-04-03T14:45:08.960Z,24.58
2019-04-03T14:47:37.558Z,25.52
2019-04-03T14:50:10.206Z,26.03
2019-04-03T14:52:38.647Z,26.97
2019-04-03T14:55:17.696Z,25.61
2019-04-03T14:57:38.230Z,26.92
2019-04-03T15:00:23.006Z,25.70
2019-04-03T15:02:40.445Z,27.29
2019-04-03T15:05:09.572Z,28.56
2019-04-03T15:07:37.948Z,25.92
2019-04-03T15:10:07.820Z,26.47
2019-04-03T15:12:38.794Z,27.80
2019-04-03T15:15:06.944Z,27.28
2019-04-03T15:17:37.635Z,28.00
2019-04-03T15:20:08.621Z,26.78
2019-04-03T15:22:37.176Z,27.58
2019-04-03T15:25:06.550Z,26.59
2019-04-03T15:27:34.937Z,27.58
2019-04-03T15:30:03.981Z,27.37
2019-04-03T15:32:32.323Z,25.99
2019-04-03T15:35:01.240Z,26.31
2019-04-03T15:37:30.445Z,26.84
2019-04-03T15:39:59.220Z,28.05
2019-04-03T15:42:27.973Z,27.85
2019-04-03T15:44:57.697Z,26.16
2019-04-03T15:47:35.325Z,27.71
2019-04-03T15:49:58.752Z,28.88
2019-04-03T15:52:27.472Z,26.66
2019-04-03T15:54:55.817Z,26.88
2019-04-03T15:57:24.400Z,27.14
2019-04-03T15:59:53.354Z,27.18
2019-04-03T16:02:21.963Z,27.35
2019-04-03T16:04:50.380Z,27.05
2019-04-03T16:07:18.648Z,27.17
2019-04-03T16:09:49.543Z,27.41
2019-04-03T16:12:17.268Z,27.53
2019-04-03T16:14:45.569Z,28.49
2019-04-03T16:17:13.887Z,27.91
2019-04-03T16:19:43.335Z,27.67
2019-04-03T16:22:12.402Z,27.78
2019-04-03T16:24:41.310Z,29.58
2019-04-03T16:27:10.985Z,28.10
2019-04-03T16:29:40.376Z,28.24
2019-04-03T16:32:09.328Z,29.20
2019-04-03T16:34:40.226Z,28.99
2019-04-03T16:37:08.181Z,28.30
2019-04-03T16:39:36.846Z,28.11
2019-04-03T16:42:05.516Z,28.94
2019-04-03T16:44:34.008Z,29.04
2019-04-03T16:47:02.895Z,28.66
2019-04-03T16:49:31.512Z,29.25
2019-04-03T16:52:00.033Z,29.76
2019-04-03T16:54:29.590Z,29.97
2019-04-03T16:56:58.801Z,30.16
2019-04-03T16:59:27.882Z,29.49
2019-04-03T17:01:56.856Z,30.46
2019-04-03T17:04:27.953Z,31.89
2019-04-03T17:06:55.688Z,30.61
2019-04-03T17:09:24.235Z,32.37
2019-04-03T17:11:52.607Z,31.91
2019-04-03T17:14:23.137Z,33.51
2019-04-03T17:16:50.974Z,32.48
2019-04-03T17:19:19.277Z,33.43
2019-04-03T17:21:48.121Z,34.75
2019-04-03T17:24:17.793Z,35.09
2019-04-03T17:26:50.270Z,36.89
2019-04-03T17:29:17.131Z,38.55
2019-04-03T17:31:45.519Z,38.93
2019-04-03T17:34:13.814Z,38.74
2019-04-03T17:36:42.206Z,38.47
2019-04-03T17:39:10.513Z,39.35
2019-04-03T17:41:39.579Z,41.25
2019-04-03T17:44:07.888Z,40.29
2019-04-03T17:46:36.545Z,40.45
2019-04-03T17:49:05.129Z,40.61
2019-04-03T17:51:34.101Z,40.75
2019-04-03T17:54:02.543Z,41.41
2019-04-03T17:56:30.903Z,41.51
2019-04-03T17:58:59.199Z,41.64
2019-04-03T18:01:27.584Z,42.03
2019-04-03T18:03:56.198Z,42.54
2019-04-03T18:06:27.166Z,42.91
2019-04-03T18:08:54.961Z,43.11
2019-04-03T18:11:23.332Z,43.38
2019-04-03T18:13:54.644Z,43.35
2019-04-03T18:16:21.674Z,43.03
2019-04-03T18:18:50.192Z,43.88
2019-04-03T18:21:18.617Z,44.43
2019-04-03T18:23:46.949Z,45.19
2019-04-03T18:26:15.257Z,45.68
2019-04-03T18:28:43.620Z,46.27
2019-04-03T18:31:13.611Z,46.42
2019-04-03T18:33:42.315Z,47.85
2019-04-03T18:36:10.624Z,47.00
2019-04-03T18:38:39.148Z,47.34
2019-04-03T18:41:07.939Z,47.28
2019-04-03T18:43:36.517Z,48.14
2019-04-03T18:46:04.909Z,48.55
2019-04-03T18:48:33.278Z,47.62
2019-04-03T18:51:01.618Z,47.88
2019-04-03T18:53:30.287Z,47.42
2019-04-03T18:55:58.895Z,47.77
2019-04-03T18:58:27.264Z,48.64
2019-04-03T19:00:55.557Z,48.77
2019-04-03T19:03:23.868Z,48.73
2019-04-03T19:05:52.185Z,48.84
2019-04-03T19:08:20.597Z,49.50
2019-04-03T19:11:01.381Z,50.77
2019-04-03T19:13:18.960Z,50.22
2019-04-03T19:15:47.329Z,50.37
2019-04-03T19:18:19.721Z,49.55
2019-04-03T19:20:46.087Z,49.74
2019-04-03T19:23:14.383Z,50.56
2019-04-03T19:25:42.706Z,50.59
2019-04-03T19:28:11.320Z,51.14
2019-04-03T19:30:39.632Z,51.58
2019-04-03T19:33:07.963Z,50.60
2019-04-03T19:35:36.291Z,50.61
2019-04-03T19:38:05.068Z,50.79
2019-04-03T19:40:33.978Z,51.29
2019-04-03T19:43:02.746Z,51.47
2019-04-03T19:45:31.178Z,51.12
2019-04-03T19:47:59.501Z,51.28
2019-04-03T19:50:27.804Z,51.41
2019-04-03T19:52:56.121Z,54.23
2019-04-03T19:55:24.428Z,52.43
2019-04-03T19:57:53.175Z,53.35
2019-04-03T20:00:21.619Z,53.91
2019-04-03T20:02:49.945Z,54.51
2019-04-03T20:05:19.441Z,54.03
2019-04-03T20:07:47.774Z,54.40
2019-04-03T20:10:16.165Z,56.29
2019-04-03T20:12:44.469Z,54.63
2019-04-03T20:15:13.234Z,54.64
2019-04-03T20:17:41.536Z,54.46
2019-04-03T20:20:11.554Z,54.50
2019-04-03T20:22:42.414Z,55.30
2019-04-03T20:25:09.933Z,56.49
2019-04-03T20:27:38.351Z,57.45
2019-04-03T20:30:07.957Z,59.17
2019-04-03T20:32:36.373Z,57.19
2019-04-03T20:35:07.160Z,56.50
2019-04-03T20:37:35.473Z,58.61
2019-04-03T20:40:05.912Z,61.30
2019-04-03T20:42:34.177Z,59.33
2019-04-03T20:45:02.558Z,59.51
2019-04-03T20:47:30.851Z,60.39
2019-04-03T20:49:59.173Z,61.08
2019-04-03T20:52:27.470Z,61.34
2019-04-03T20:54:55.876Z,61.89
2019-04-03T20:57:24.191Z,64.09
2019-04-03T21:00:02.019Z,62.70
2019-04-03T21:02:23.044Z,61.76
2019-04-03T21:04:51.559Z,63.87
2019-04-03T21:07:19.871Z,66.43
2019-04-03T21:09:48.181Z,68.63
2019-04-03T21:12:16.498Z,68.54
2019-04-03T21:14:47.447Z,71.02
2019-04-03T21:17:14.901Z,70.34
2019-04-03T21:19:43.208Z,68.51
2019-04-03T21:22:11.506Z,67.53
2019-04-03T21:24:39.827Z,68.98
2019-04-03T21:27:08.787Z,71.10
2019-04-03T21:29:37.799Z,71.41
2019-04-03T21:32:06.392Z,72.62
2019-04-03T21:34:34.716Z,72.20
2019-04-03T21:37:03.159Z,72.70
2019-04-03T21:39:33.790Z,72.52
2019-04-03T21:42:01.861Z,72.75
2019-04-03T21:44:31.933Z,72.93
2019-04-03T21:47:00.579Z,74.33
2019-04-03T21:49:28.942Z,73.87
2019-04-03T21:51:57.265Z,75.54
2019-04-03T21:54:26.854Z,74.29
2019-04-03T21:56:55.616Z,73.62
2019-04-03T21:59:23.915Z,75.18
2019-04-03T22:01:52.579Z,71.82
2019-04-03T22:04:22.850Z,73.05
2019-04-03T22:06:50.986Z,73.19
2019-04-03T22:09:19.558Z,73.94
2019-04-03T22:11:48.171Z,73.62
2019-04-03T22:14:16.476Z,73.91
2019-04-03T22:16:44.774Z,73.72
2019-04-03T22:19:13.826Z,74.77
2019-04-03T22:21:42.213Z,75.28
2019-04-03T22:24:10.653Z,74.28
2019-04-03T22:26:40.794Z,74.73
2019-04-03T22:29:09.062Z,76.07
2019-04-03T22:31:37.366Z,75.65
2019-04-03T22:34:05.745Z,74.64
2019-04-03T22:36:34.127Z,75.98
2019-04-03T22:39:02.523Z,75.59
2019-04-03T22:41:30.828Z,75.11
2019-04-03T22:43:59.591Z,76.29
2019-04-03T22:46:27.907Z,76.77
2019-04-03T22:48:56.205Z,75.61
2019-04-03T22:51:24.599Z,76.24
2019-04-03T22:53:52.966Z,75.75
2019-04-03T22:56:21.285Z,77.14
2019-04-03T22:58:52.592Z,76.04
2019-04-03T23:01:19.627Z,76.92
2019-04-03T23:03:49.362Z,77.52
2019-04-03T23:06:18.800Z,76.12
2019-04-03T23:08:47.795Z,78.19
2019-04-03T23:11:16.434Z,78.09
2019-04-03T23:13:44.771Z,75.72
2019-04-03T23:16:13.117Z,76.52
2019-04-03T23:18:41.750Z,79.16
2019-04-03T23:21:10.120Z,76.75
2019-04-03T23:23:38.599Z,76.49
2019-04-03T23:26:06.904Z,76.31
2019-04-03T23:28:35.384Z,79.08
2019-04-03T23:31:03.710Z,78.67
2019-04-03T23:33:32.447Z,77.83
2019-04-03T23:36:00.840Z,79.47
2019-04-03T23:38:29.131Z,79.50
2019-04-03T23:40:57.447Z,80.74
2019-04-03T23:43:25.832Z,80.38
2019-04-03T23:45:54.220Z,79.56
2019-04-03T23:48:22.595Z,79.33
2019-04-03T23:50:52.392Z,79.39
2019-04-03T23:53:21.245Z,79.20
2019-04-03T23:55:49.543Z,82.11
2019-04-03T23:58:17.866Z,83.05
